Time;durP1;ratioP1;P1;durP2;ratioP2;P2;SDS_P1;SDS_P2;PMS_P1;PMS_P2;Temp;Humidity;BMP_temperature;BMP_pressure;BME280_temperature;BME280_humidity;BME280_pressure;Samples;Min_cycle;Max_cycle;Signal;HPM_P1;HPM_P2
2020/12/18 00:02:26;;;;;;;15.18;7.35;;;;;;;0.39;88.73;99936.03;5044694;28;20102;-78
2020/12/18 00:04:53;;;;;;;11.50;7.32;;;;;;;0.26;88.86;99914.59;5032665;28;20136;-79
2020/12/18 00:07:19;;;;;;;14.18;7.32;;;;;;;0.21;88.76;99923.88;5050693;28;20488;-79
2020/12/18 00:09:46;;;;;;;13.38;7.50;;;;;;;0.19;88.80;99929.31;5047143;28;20056;-79
2020/12/18 00:12:12;;;;;;;15.60;7.35;;;;;;;0.18;87.86;99898.19;5050011;28;20142;-79
2020/12/18 00:14:39;;;;;;;19.60;7.72;;;;;;;0.16;88.76;99910.81;5051447;28;20130;-78
2020/12/18 00:17:05;;;;;;;24.15;9.15;;;;;;;0.16;89.90;99924.19;5017435;28;806633;-78
2020/12/18 00:19:33;;;;;;;18.60;7.07;;;;;;;0.25;88.95;99920.06;5051961;28;20045;-79
2020/12/18 00:22:00;;;;;;;13.43;7.13;;;;;;;0.02;89.05;99884.13;5051648;28;20052;-79
2020/12/18 00:24:27;;;;;;;17.70;8.37;;;;;;;0.24;88.28;99931.69;5036830;28;20139;-79
2020/12/18 00:26:53;;;;;;;19.98;7.60;;;;;;;0.03;88.20;99920.59;5051888;28;20056;-79
2020/12/18 00:29:20;;;;;;;12.93;7.53;;;;;;;-0.09;88.64;99904.38;5043505;28;20057;-78
2020/12/18 00:31:46;;;;;;;33.60;8.70;;;;;;;-0.14;88.90;99901.13;5034004;28;20045;-78
2020/12/18 00:34:13;;;;;;;29.98;8.00;;;;;;;-0.06;89.10;99919.34;5029935;28;20247;-79
2020/12/18 00:36:40;;;;;;;26.30;7.63;;;;;;;-0.10;88.62;99916.03;5048045;28;20052;-79
2020/12/18 00:39:07;;;;;;;58.67;10.45;;;;;;;-0.13;88.59;99907.38;5045119;28;20049;-79
2020/12/18 00:41:34;;;;;;;38.30;8.65;;;;;;;-0.15;89.49;99907.47;5043305;28;20049;-78
2020/12/18 00:44:00;;;;;;;31.40;8.35;;;;;;;-0.36;89.15;99913.22;5046945;28;20056;-79
2020/12/18 00:46:26;;;;;;;29.17;7.53;;;;;;;-0.30;90.24;99928.00;5039355;28;20076;-79
2020/12/18 00:48:52;;;;;;;20.20;7.72;;;;;;;-0.29;90.08;99923.50;5032192;28;20456;-79
2020/12/18 00:51:19;;;;;;;23.58;8.55;;;;;;;-0.14;89.27;99940.38;5044943;28;20044;-79
2020/12/18 00:53:47;;;;;;;15.37;8.03;;;;;;;-0.33;90.19;99922.84;5044325;28;20041;-79
2020/12/18 00:56:13;;;;;;;21.43;8.47;;;;;;;-0.19;89.20;99933.50;5047618;28;20135;-79
2020/12/18 00:58:43;;;;;;;28.03;10.00;;;;;;;-0.27;88.32;99922.47;5039849;28;20094;-79
2020/12/18 01:01:10;;;;;;;22.57;8.13;;;;;;;-0.35;88.41;99927.41;5048707;28;20053;-79
2020/12/18 01:03:37;;;;;;;12.10;7.70;;;;;;;-0.33;88.86;99946.91;5050662;28;20041;-79
2020/12/18 01:06:10;;;;;;;14.37;7.67;;;;;;;-0.47;89.35;99945.06;5050395;28;20045;-78
2020/12/18 01:08:37;;;;;;;16.07;6.87;;;;;;;-0.42;89.43;99932.28;5034058;28;20045;-79
2020/12/18 01:11:05;;;;;;;12.33;7.03;;;;;;;-0.36;89.43;99949.75;5036427;28;20060;-79
2020/12/18 01:13:32;;;;;;;7.53;5.80;;;;;;;-0.33;89.63;99949.56;5040094;28;20046;-79
2020/12/18 01:15:58;;;;;;;9.93;5.83;;;;;;;-0.33;89.37;99943.34;5046817;28;20194;-79
2020/12/18 01:18:24;;;;;;;12.90;6.07;;;;;;;-0.16;88.63;99955.66;5050274;28;20041;-79
2020/12/18 01:20:51;;;;;;;9.20;5.70;;;;;;;-0.44;89.88;99939.53;5032027;28;20141;-79
2020/12/18 01:23:18;;;;;;;7.73;5.13;;;;;;;-0.37;89.50;99946.22;5049164;28;20053;-79
2020/12/18 01:25:44;;;;;;;8.13;4.97;;;;;;;-0.14;89.92;99961.75;5049476;28;20416;-79
2020/12/18 01:28:13;;;;;;;7.00;4.57;;;;;;;-0.21;88.45;99966.63;5040779;28;20106;-79
2020/12/18 01:30:39;;;;;;;7.57;4.50;;;;;;;-0.52;89.16;99935.66;5048144;28;20053;-79
2020/12/18 01:33:05;;;;;;;8.47;5.57;;;;;;;-0.31;89.22;99961.00;5039460;28;20053;-79
2020/12/18 01:35:31;;;;;;;13.67;5.93;;;;;;;-0.23;88.70;99965.88;5030840;28;20049;-79
2020/12/18 01:37:58;;;;;;;8.40;4.87;;;;;;;-0.60;89.26;99946.81;5050835;28;20397;-79
2020/12/18 01:40:24;;;;;;;13.27;6.00;;;;;;;-0.64;89.21;99947.94;5047928;28;20091;-79
2020/12/18 01:42:50;;;;;;;7.53;4.83;;;;;;;-0.46;89.21;99965.50;5050311;28;20045;-79
2020/12/18 01:45:17;;;;;;;9.03;5.47;;;;;;;-0.51;89.68;99961.38;5044597;28;20045;-79
2020/12/18 01:47:45;;;;;;;8.47;5.80;;;;;;;-0.48;88.22;99950.50;5047262;28;20064;-78
2020/12/18 01:50:12;;;;;;;7.10;5.03;;;;;;;-0.55;87.76;99958.06;5049910;28;20138;-78
2020/12/18 01:52:39;;;;;;;7.97;3.90;;;;;;;-0.54;88.59;99971.31;5036380;28;20060;-78
2020/12/18 01:55:06;;;;;;;6.63;4.40;;;;;;;-0.64;88.05;99977.31;5044964;28;20432;-78
2020/12/18 01:57:33;;;;;;;8.97;4.67;;;;;;;-0.75;88.85;99978.81;5048714;28;20045;-78
2020/12/18 02:00:01;;;;;;;9.50;4.57;;;;;;;-0.72;88.96;99961.75;5046405;28;20059;-78
2020/12/18 02:02:29;;;;;;;10.90;5.03;;;;;;;-0.80;89.86;99970.25;5046282;28;20065;-78
2020/12/18 02:04:55;;;;;;;6.87;4.23;;;;;;;-0.67;88.94;99962.31;5034207;28;20488;-78
2020/12/18 02:07:25;;;;;;;6.93;4.47;;;;;;;-0.70;89.24;99959.00;5049550;28;20492;-78
2020/12/18 02:09:51;;;;;;;6.68;4.55;;;;;;;-0.79;88.60;99942.56;5050933;28;20080;-78
2020/12/18 02:12:18;;;;;;;6.63;4.60;;;;;;;-0.81;89.55;99940.94;5043704;28;20402;-78
2020/12/18 02:14:47;;;;;;;6.20;4.57;;;;;;;-0.53;88.84;99961.47;5030860;28;20104;-78
2020/12/18 02:17:14;;;;;;;7.20;4.25;;;;;;;-0.75;89.06;99965.47;5039208;28;20596;-78
2020/12/18 02:19:44;;;;;;;9.23;5.07;;;;;;;-0.62;88.28;99954.03;5046034;28;20049;-78
2020/12/18 02:22:14;;;;;;;7.13;4.22;;;;;;;-0.74;88.19;99956.53;5045524;28;20068;-78
2020/12/18 02:24:47;;;;;;;8.43;4.77;;;;;;;-0.84;88.45;99947.34;5030750;28;20053;-78
2020/12/18 02:27:14;;;;;;;5.90;4.37;;;;;;;-1.01;88.88;99928.81;5034633;28;20056;-78
2020/12/18 02:29:41;;;;;;;6.20;4.30;;;;;;;-0.89;89.63;99962.75;5047664;28;20045;-78
2020/12/18 02:32:07;;;;;;;7.63;4.67;;;;;;;-0.90;89.46;99950.38;5038509;28;20049;-78
2020/12/18 02:34:34;;;;;;;7.80;5.00;;;;;;;-0.82;89.38;99963.28;5045198;28;20056;-78
2020/12/18 02:37:02;;;;;;;13.37;7.10;;;;;;;-0.98;90.33;99953.53;5041391;28;20045;-78
2020/12/18 02:39:28;;;;;;;27.73;7.53;;;;;;;-0.85;89.86;99953.63;5049076;28;20053;-77
2020/12/18 02:41:55;;;;;;;30.53;7.33;;;;;;;-0.88;90.37;99943.13;5049947;28;20041;-78
2020/12/18 02:44:23;;;;;;;17.60;6.13;;;;;;;-0.94;89.53;99927.50;5048134;28;20079;-78
2020/12/18 02:46:50;;;;;;;18.37;6.17;;;;;;;-0.97;89.08;99939.19;5041390;28;20041;-78
2020/12/18 02:49:16;;;;;;;22.23;6.03;;;;;;;-1.18;89.14;99919.16;5041235;28;20147;-78
2020/12/18 02:51:43;;;;;;;17.93;7.43;;;;;;;-1.22;90.37;99938.94;5049461;28;20491;-78
2020/12/18 02:54:10;;;;;;;23.23;8.83;;;;;;;-1.19;90.49;99925.44;5039835;28;20048;-77
2020/12/18 02:56:36;;;;;;;10.23;6.07;;;;;;;-1.16;89.85;99927.91;5048685;28;20413;-78
2020/12/18 02:59:03;;;;;;;37.43;7.57;;;;;;;-1.18;89.40;99925.34;5036766;28;20484;-78
2020/12/18 03:01:30;;;;;;;40.87;8.37;;;;;;;-1.14;89.72;99955.38;5045440;28;20049;-78
2020/12/18 03:03:56;;;;;;;22.47;10.17;;;;;;;-1.04;89.59;99945.00;5034524;28;20464;-78
2020/12/18 03:06:23;;;;;;;45.43;7.37;;;;;;;-1.02;90.14;99956.44;5049844;28;20045;-77
2020/12/18 03:08:49;;;;;;;31.20;6.57;;;;;;;-1.07;90.13;99951.38;5054440;28;20055;-77
2020/12/18 03:11:15;;;;;;;15.57;7.33;;;;;;;-1.11;90.06;99928.50;5051984;28;20481;-77
2020/12/18 03:13:44;;;;;;;26.80;8.00;;;;;;;-1.00;90.22;99947.41;5053933;28;20521;-78
2020/12/18 03:16:11;;;;;;;17.27;7.23;;;;;;;-1.12;90.32;99940.13;5051865;28;20079;-77
2020/12/18 03:18:38;;;;;;;22.20;7.27;;;;;;;-1.18;90.29;99930.66;5052800;28;20049;-78
2020/12/18 03:21:05;;;;;;;21.47;7.33;;;;;;;-1.18;89.98;99937.81;5051547;28;20045;-77
2020/12/18 03:23:31;;;;;;;35.50;6.80;;;;;;;-1.12;89.91;99940.97;5051569;28;20047;-78
2020/12/18 03:25:57;;;;;;;26.43;7.87;;;;;;;-1.28;90.36;99922.38;5052669;28;20045;-78
2020/12/18 03:28:24;;;;;;;19.27;7.20;;;;;;;-1.12;90.51;99932.13;5039774;28;20052;-78
2020/12/18 03:30:51;;;;;;;16.17;6.63;;;;;;;-1.15;91.01;99941.16;5053479;28;20049;-78
2020/12/18 03:33:17;;;;;;;13.50;6.57;;;;;;;-1.28;90.29;99943.72;5034799;28;20056;-78
2020/12/18 03:35:44;;;;;;;42.37;8.60;;;;;;;-1.33;91.06;99948.44;5039409;28;20045;-78
2020/12/18 03:38:10;;;;;;;15.80;7.67;;;;;;;-1.26;91.27;99949.81;5033722;28;20099;-78
2020/12/18 03:40:37;;;;;;;34.80;7.67;;;;;;;-1.16;91.34;99959.94;5043535;28;20619;-78
2020/12/18 03:43:03;;;;;;;27.00;7.33;;;;;;;-1.20;91.62;99945.94;5043480;28;20084;-78
2020/12/18 03:45:30;;;;;;;31.87;7.63;;;;;;;-1.14;91.01;99952.72;5047868;28;20058;-77
2020/12/18 03:47:56;;;;;;;19.57;7.93;;;;;;;-1.09;90.69;99950.63;5053297;28;20052;-77
2020/12/18 03:50:23;;;;;;;30.93;10.10;;;;;;;-1.01;89.28;99948.38;5049281;28;20520;-78
2020/12/18 03:52:50;;;;;;;14.13;7.90;;;;;;;-1.15;89.51;99951.84;5053035;28;20053;-78
2020/12/18 03:55:16;;;;;;;11.33;6.83;;;;;;;-1.24;89.14;99933.72;5047406;28;20464;-78
2020/12/18 03:57:42;;;;;;;11.63;6.20;;;;;;;-1.19;89.55;99947.66;5050310;28;20041;-78
2020/12/18 04:00:09;;;;;;;12.00;6.53;;;;;;;-1.23;89.58;99943.44;5052298;28;20107;-78
2020/12/18 04:02:36;;;;;;;9.87;6.03;;;;;;;-1.35;90.01;99952.16;5052900;28;20045;-78
2020/12/18 04:05:02;;;;;;;11.07;6.13;;;;;;;-1.18;90.52;99945.84;5052525;28;20048;-78
2020/12/18 04:07:29;;;;;;;11.50;6.13;;;;;;;-1.07;89.79;99948.72;5051721;28;20041;-78
2020/12/18 04:09:56;;;;;;;9.47;5.20;;;;;;;-1.21;89.43;99946.00;5051365;28;20405;-78
2020/12/18 04:12:22;;;;;;;8.90;5.37;;;;;;;-1.38;89.99;99939.00;5051261;28;20075;-78
2020/12/18 04:14:48;;;;;;;7.40;5.50;;;;;;;-1.52;90.05;99927.34;5033091;28;20050;-78
2020/12/18 04:17:14;;;;;;;8.67;4.83;;;;;;;-1.43;90.69;99923.25;5044187;28;20053;-78
2020/12/18 04:19:41;;;;;;;8.53;5.47;;;;;;;-1.55;91.23;99929.31;5052687;28;20052;-78
2020/12/18 04:22:07;;;;;;;8.67;6.17;;;;;;;-1.44;91.79;99917.06;5045049;28;20059;-78
2020/12/18 04:24:33;;;;;;;10.23;5.90;;;;;;;-1.35;91.88;99933.50;5049469;28;20095;-78
2020/12/18 04:27:00;;;;;;;12.03;6.30;;;;;;;-1.26;91.84;99938.28;5052396;28;20052;-78
2020/12/18 04:29:27;;;;;;;30.07;6.90;;;;;;;-1.33;92.04;99915.59;5049996;28;20571;-79
2020/12/18 04:31:56;;;;;;;25.30;7.10;;;;;;;-1.18;92.05;99921.81;5051723;28;20064;-79
2020/12/18 04:34:22;;;;;;;21.33;6.73;;;;;;;-1.17;91.46;99929.72;5050361;28;20095;-78
2020/12/18 04:36:48;;;;;;;25.33;6.90;;;;;;;-1.28;91.57;99914.38;5037788;28;20049;-78
2020/12/18 04:39:14;;;;;;;20.30;6.43;;;;;;;-1.18;91.48;99911.16;5037876;28;20057;-78
2020/12/18 04:41:41;;;;;;;17.10;6.70;;;;;;;-1.33;91.48;99897.75;5040550;28;20046;-79
2020/12/18 04:44:09;;;;;;;32.17;6.50;;;;;;;-1.31;91.62;99914.56;5036767;28;20040;-79
2020/12/18 04:46:37;;;;;;;14.80;6.17;;;;;;;-1.45;91.97;99899.34;5050533;28;20064;-79
2020/12/18 04:49:04;;;;;;;44.80;7.37;;;;;;;-1.35;92.49;99897.00;5040571;28;20147;-78
2020/12/18 04:51:30;;;;;;;23.13;6.33;;;;;;;-1.23;92.14;99923.88;5051030;28;20045;-79
2020/12/18 04:53:57;;;;;;;12.27;6.30;;;;;;;-1.30;92.16;99912.72;5051607;28;20049;-79
2020/12/18 04:56:25;;;;;;;14.03;7.03;;;;;;;-1.35;91.94;99902.34;5048348;28;20056;-79
2020/12/18 04:58:53;;;;;;;19.90;6.30;;;;;;;-1.22;91.61;99906.94;5049314;28;20176;-79
2020/12/18 05:01:23;;;;;;;19.53;6.60;;;;;;;-1.18;91.06;99905.81;5050143;28;20566;-79
2020/12/18 05:03:50;;;;;;;15.50;7.13;;;;;;;-1.20;91.02;99895.22;5051724;28;20486;-79
2020/12/18 05:06:17;;;;;;;18.13;7.07;;;;;;;-1.39;90.32;99897.28;5034357;28;20052;-79
2020/12/18 05:08:44;;;;;;;21.07;6.23;;;;;;;-1.48;90.48;99906.66;5051316;28;20508;-79
2020/12/18 05:11:21;;;;;;;22.93;7.00;;;;;;;-1.48;91.29;99904.00;5039132;28;20445;-78
2020/12/18 05:13:48;;;;;;;47.80;8.43;;;;;;;-1.40;91.33;99924.88;5048405;28;20055;-81
2020/12/18 05:16:17;;;;;;;14.27;6.80;;;;;;;-1.52;92.15;99921.13;5049522;28;20037;-79
2020/12/18 05:18:44;;;;;;;32.43;7.27;;;;;;;-1.36;91.74;99921.09;5050968;28;20056;-79
2020/12/18 05:21:11;;;;;;;18.37;7.10;;;;;;;-1.23;91.49;99932.75;5041449;28;20051;-80
2020/12/18 05:23:38;;;;;;;27.43;7.40;;;;;;;-1.34;91.55;99904.06;5053369;28;20044;-80
2020/12/18 05:26:10;;;;;;;24.60;7.83;;;;;;;-1.14;91.40;99932.22;5052868;28;20056;-80
2020/12/18 05:28:40;;;;;;;28.07;7.67;;;;;;;-1.40;91.53;99893.75;5051717;28;20048;-80
2020/12/18 05:31:14;;;;;;;30.70;7.90;;;;;;;-1.15;91.05;99922.47;5050431;28;20506;-80
2020/12/18 05:33:41;;;;;;;27.77;8.33;;;;;;;-1.26;90.75;99906.28;5033636;28;20049;-80
2020/12/18 05:36:09;;;;;;;25.17;7.43;;;;;;;-1.36;90.40;99915.75;5050619;28;20098;-80
2020/12/18 05:38:36;;;;;;;13.57;6.40;;;;;;;-1.45;90.13;99909.16;5050592;28;20048;-80
2020/12/18 05:41:03;;;;;;;15.50;7.27;;;;;;;-1.41;90.26;99909.84;5050786;28;20052;-80
2020/12/18 05:43:38;;;;;;;13.87;6.47;;;;;;;-1.39;90.32;99914.13;5050650;28;20049;-80
2020/12/18 05:46:18;;;;;;;25.00;6.73;;;;;;;-1.51;91.21;99910.38;5051185;28;20049;-80
2020/12/18 05:48:44;;;;;;;;;;;;;;;-1.41;91.21;99921.38;5051440;28;20041;-80
2020/12/18 05:51:25;;;;;;;15.43;6.63;;;;;;;-1.49;91.48;99912.94;5033470;28;19967;-80
2020/12/18 05:54:10;;;;;;;28.00;6.17;;;;;;;-1.52;91.76;99919.34;5047636;28;20049;-80
2020/12/18 05:56:37;;;;;;;16.20;6.53;;;;;;;-1.60;92.12;99889.56;5051222;28;20048;-80
2020/12/18 05:59:08;;;;;;;17.60;7.73;;;;;;;-1.46;92.23;99894.97;5049325;28;20045;-80
2020/12/18 06:01:39;;;;;;;14.20;7.80;;;;;;;-1.20;91.25;99927.25;5044999;28;20528;-80
2020/12/18 06:04:10;;;;;;;9.23;6.70;;;;;;;-1.31;90.99;99927.88;5049797;28;20048;-81
2020/12/18 06:06:41;;;;;;;19.03;6.37;;;;;;;-1.34;90.33;99924.53;5047261;28;20102;-80
2020/12/18 06:09:09;;;;;;;15.87;7.03;;;;;;;-1.38;90.30;99920.34;5047905;28;20057;-80
2020/12/18 06:11:36;;;;;;;11.30;6.67;;;;;;;-1.52;90.25;99892.66;5050257;28;20132;-80
2020/12/18 06:14:04;;;;;;;17.57;6.67;;;;;;;-1.44;90.21;99890.41;5050040;28;20049;-80
2020/12/18 06:16:30;;;;;;;12.90;6.83;;;;;;;-1.43;90.36;99894.78;5050162;28;20048;-81
2020/12/18 06:19:03;;;;;;;20.13;7.43;;;;;;;-1.33;89.87;99908.44;5050622;28;20453;-80
2020/12/18 06:21:30;;;;;;;10.83;6.23;;;;;;;-1.37;90.22;99922.03;5051636;28;20398;-80
2020/12/18 06:23:58;;;;;;;11.53;6.70;;;;;;;-1.56;90.27;99895.59;5044108;28;20647;-79
2020/12/18 06:26:25;;;;;;;12.33;6.93;;;;;;;-1.39;90.05;99902.59;5048272;28;20140;-80
2020/12/18 06:28:52;;;;;;;11.23;6.70;;;;;;;-1.46;89.19;99910.09;5046020;28;20095;-81
2020/12/18 06:31:23;;;;;;;17.97;7.90;;;;;;;-1.35;88.91;99885.47;5038624;28;20509;-80
2020/12/18 06:33:51;;;;;;;13.70;7.23;;;;;;;-1.42;89.32;99911.63;5044082;28;20072;-79
2020/12/18 06:36:18;;;;;;;14.70;6.30;;;;;;;-1.47;88.94;99911.06;5054497;28;20679;-79
2020/12/18 06:38:44;;;;;;;12.47;6.93;;;;;;;-1.74;89.14;99895.72;5040686;28;20094;-79
2020/12/18 06:41:26;;;;;;;13.73;7.10;;;;;;;-1.53;90.30;99935.44;5049211;28;20542;-79
2020/12/18 06:43:52;;;;;;;12.93;6.97;;;;;;;-1.66;90.52;99922.78;5052963;28;20053;-79
2020/12/18 06:46:20;;;;;;;10.27;6.87;;;;;;;-1.49;90.50;99943.16;5049071;28;20045;-79
2020/12/18 06:48:51;;;;;;;14.33;6.77;;;;;;;-1.47;90.61;99938.59;5036306;28;20092;-79
2020/12/18 06:51:28;;;;;;;12.07;6.37;;;;;;;-1.52;90.37;99907.78;5049625;28;20041;-80
2020/12/18 06:54:10;;;;;;;10.33;6.57;;;;;;;-1.39;89.26;99942.63;5039828;28;20063;-79
2020/12/18 06:56:38;;;;;;;9.37;5.90;;;;;;;-1.56;88.82;99932.94;5047842;28;20065;-80
2020/12/18 06:59:22;;;;;;;8.87;5.57;;;;;;;-1.66;88.86;99922.78;5040915;28;20037;-79
2020/12/18 07:01:51;;;;;;;10.90;5.90;;;;;;;-1.63;89.83;99935.09;5055724;28;20086;-79
2020/12/18 07:04:22;;;;;;;16.17;6.57;;;;;;;-1.68;90.19;99918.50;5052902;28;20445;-79
2020/12/18 07:06:48;;;;;;;23.00;7.23;;;;;;;-1.56;90.94;99940.94;5048170;28;20416;-79
2020/12/18 07:09:17;;;;;;;18.17;6.93;;;;;;;-1.51;91.43;99941.53;5054213;28;20045;-78
2020/12/18 07:11:47;;;;;;;28.17;7.63;;;;;;;-1.47;90.93;99937.72;5048794;28;20044;-78
2020/12/18 07:14:15;;;;;;;24.38;7.18;;;;;;;-1.66;90.91;99914.78;5053364;28;20142;-78
2020/12/18 07:16:53;;;;;;;13.60;6.60;;;;;;;-1.47;90.92;99929.72;5053223;28;20057;-78
2020/12/18 07:19:19;;;;;;;20.43;8.23;;;;;;;-1.22;89.81;99936.28;5053751;28;20095;-79
2020/12/18 07:21:47;;;;;;;17.23;6.50;;;;;;;-1.40;90.10;99935.56;5055604;28;20045;-80
2020/12/18 07:24:13;;;;;;;25.00;5.80;;;;;;;-1.43;90.18;99945.47;5055307;28;20586;-80
2020/12/18 07:26:51;;;;;;;14.50;6.20;;;;;;;-1.52;90.34;99934.47;5054464;28;20044;-80
2020/12/18 07:29:19;;;;;;;17.57;6.60;;;;;;;-1.58;90.38;99918.81;5053754;28;20439;-78
2020/12/18 07:31:45;;;;;;;11.97;6.33;;;;;;;-1.73;90.52;99905.44;5053205;28;20493;-78
2020/12/18 07:34:11;;;;;;;13.93;6.40;;;;;;;-1.58;90.19;99926.81;5052933;28;20060;-78
2020/12/18 07:36:38;;;;;;;12.27;7.57;;;;;;;-1.62;90.52;99920.81;5053480;28;20048;-78
2020/12/18 07:39:10;;;;;;;13.00;6.93;;;;;;;-1.67;91.03;99918.41;5050710;28;20049;-79
2020/12/18 07:41:36;;;;;;;13.70;6.87;;;;;;;-1.59;91.04;99928.63;5053283;28;20045;-78
2020/12/18 07:44:07;;;;;;;14.43;7.67;;;;;;;-1.48;90.35;99952.84;5053337;28;20045;-78
2020/12/18 07:46:36;;;;;;;23.50;9.10;;;;;;;-1.53;90.36;99901.59;5053000;28;20516;-79
2020/12/18 07:49:08;;;;;;;17.10;9.20;;;;;;;-1.40;90.25;99912.44;5053862;28;20052;-80
2020/12/18 07:51:39;;;;;;;18.10;8.33;;;;;;;-1.44;90.33;99892.22;5055236;28;20052;-80
2020/12/18 07:54:17;;;;;;;20.07;9.70;;;;;;;-1.19;90.14;99930.75;5054921;28;20103;-80
2020/12/18 07:56:45;;;;;;;27.50;9.23;;;;;;;-1.35;90.33;99894.34;5054957;28;20090;-78
2020/12/18 07:59:12;;;;;;;35.13;10.03;;;;;;;-1.21;90.49;99922.84;5049206;28;20123;-79
2020/12/18 08:01:39;;;;;;;53.33;10.53;;;;;;;-1.27;90.66;99904.53;5053243;28;20111;-79
2020/12/18 08:04:09;;;;;;;26.03;9.40;;;;;;;-1.15;90.80;99930.50;5052757;28;20076;-79
2020/12/18 08:06:37;;;;;;;28.23;8.33;;;;;;;-1.37;91.12;99885.56;5050434;28;20056;-79
2020/12/18 08:09:05;;;;;;;40.83;9.93;;;;;;;-1.26;91.53;99901.78;5052958;28;20124;-79
2020/12/18 08:11:33;;;;;;;27.43;8.33;;;;;;;-1.08;91.05;99923.00;5052661;28;20497;-79
2020/12/18 08:14:01;;;;;;;21.03;7.83;;;;;;;-1.32;91.27;99893.31;5053432;28;20070;-79
2020/12/18 08:16:29;;;;;;;30.57;9.67;;;;;;;-1.30;91.52;99899.38;5052423;28;20075;-79
2020/12/18 08:18:58;;;;;;;25.70;9.03;;;;;;;-1.03;91.50;99928.06;5051516;28;20452;-79
2020/12/18 08:21:26;;;;;;;46.50;12.17;;;;;;;-1.12;91.02;99926.78;5052110;28;20056;-79
2020/12/18 08:24:02;;;;;;;22.93;11.37;;;;;;;-1.09;91.42;99910.59;5052727;28;20060;-79
2020/12/18 08:26:33;;;;;;;35.40;11.87;;;;;;;-0.98;90.26;99907.25;5052876;28;20052;-79
2020/12/18 08:28:59;;;;;;;23.00;9.47;;;;;;;-0.83;90.53;99925.00;5052333;28;20064;-79
2020/12/18 08:31:27;;;;;;;36.87;9.83;;;;;;;-0.96;90.31;99919.56;5052197;28;20052;-79
2020/12/18 08:33:54;;;;;;;24.03;8.20;;;;;;;-0.90;90.42;99923.69;5052243;28;20044;-79
2020/12/18 08:36:23;;;;;;;27.10;9.03;;;;;;;-0.87;90.51;99918.16;5052139;28;20171;-79
2020/12/18 08:39:01;;;;;;;19.33;8.53;;;;;;;-0.79;90.82;99920.34;5052549;28;20493;-79
2020/12/18 08:41:38;;;;;;;20.77;9.30;;;;;;;-0.97;90.89;99911.66;5052042;28;20519;-79
2020/12/18 08:44:06;;;;;;;14.77;8.77;;;;;;;-0.84;91.46;99919.75;5052288;28;20049;-79
2020/12/18 08:46:36;;;;;;;17.17;9.53;;;;;;;-0.80;91.78;99924.84;5053663;28;20076;-79
2020/12/18 08:49:16;;;;;;;22.77;11.07;;;;;;;-0.77;91.57;99913.97;5051166;28;20520;-79
2020/12/18 08:51:43;;;;;;;20.55;11.70;;;;;;;-0.57;91.12;99935.94;5053140;28;20094;-79
2020/12/18 08:54:38;;;;;;;21.30;9.73;;;;;;;-0.66;91.28;99918.66;5053112;28;20044;-79
2020/12/18 08:57:24;;;;;;;15.83;9.43;;;;;;;-0.70;90.78;99901.09;5052990;28;20099;-78
2020/12/18 09:00:13;;;;;;;14.27;8.43;;;;;;;-0.56;90.87;99932.28;5045375;28;20057;-78
2020/12/18 09:02:42;;;;;;;16.03;8.80;;;;;;;-0.66;91.08;99912.44;5033639;28;20050;-78
2020/12/18 09:05:11;;;;;;;19.63;10.17;;;;;;;-0.45;91.17;99937.84;5036433;28;20052;-78
2020/12/18 09:07:41;;;;;;;17.25;9.65;;;;;;;-0.48;91.12;99922.00;5033900;28;20053;-78
2020/12/18 09:10:09;;;;;;;18.27;9.43;;;;;;;-0.36;90.75;99928.38;5048751;28;20053;-78
2020/12/18 09:12:42;;;;;;;88.57;44.90;;;;;;;-0.39;91.15;99929.44;5052360;28;20048;-79
2020/12/18 09:15:29;;;;;;;24.67;13.87;;;;;;;-0.27;91.00;99934.94;5046530;28;20070;-78
2020/12/18 09:18:04;;;;;;;21.17;11.10;;;;;;;-0.14;90.44;99930.53;5047630;28;20045;-78
2020/12/18 09:20:33;;;;;;;14.50;9.40;;;;;;;-0.33;90.87;99914.84;5055157;28;20611;-78
2020/12/18 09:23:02;;;;;;;19.07;10.37;;;;;;;-0.13;90.95;99923.41;5051485;28;20238;-78
2020/12/18 09:25:29;;;;;;;25.40;11.20;;;;;;;-0.16;90.41;99929.78;5051991;28;20072;-78
2020/12/18 09:27:57;;;;;;;20.87;11.57;;;;;;;-0.20;90.89;99937.16;5051595;28;20068;-78
2020/12/18 09:30:28;;;;;;;28.30;12.80;;;;;;;-0.14;91.96;99924.34;5052070;28;20063;-78
2020/12/18 09:33:25;;;;;;;23.90;11.93;;;;;;;-0.14;92.29;99929.69;5051760;28;20060;-78
2020/12/18 09:35:53;;;;;;;20.77;11.37;;;;;;;-0.09;92.25;99923.09;5051511;28;20413;-78
2020/12/18 09:38:24;;;;;;;25.93;12.93;;;;;;;-0.05;91.81;99934.44;5051953;28;20041;-78
2020/12/18 09:40:51;;;;;;;28.07;14.43;;;;;;;-0.10;92.02;99918.69;5051996;28;20456;-78
2020/12/18 09:43:18;;;;;;;29.00;13.63;;;;;;;0.01;91.71;99922.50;5045930;28;20450;-78
2020/12/18 09:45:45;;;;;;;18.13;10.93;;;;;;;-0.03;91.94;99914.69;5051313;28;20056;-78
2020/12/18 09:48:11;;;;;;;19.23;10.80;;;;;;;0.02;92.55;99911.72;5035562;28;20444;-78
2020/12/18 09:50:37;;;;;;;25.03;13.17;;;;;;;0.12;91.74;99920.84;5051848;28;20057;-78
2020/12/18 09:53:05;;;;;;;27.17;13.17;;;;;;;0.20;91.20;99904.31;5051459;28;20509;-78
2020/12/18 09:55:32;;;;;;;25.17;12.50;;;;;;;0.22;91.84;99912.22;5051255;28;20053;-78
2020/12/18 09:57:59;;;;;;;24.30;12.87;;;;;;;0.29;91.98;99905.53;5051455;28;20052;-78
2020/12/18 10:00:25;;;;;;;27.13;14.33;;;;;;;0.39;91.75;99898.59;5051929;28;20213;-78
2020/12/18 10:02:51;;;;;;;22.57;13.47;;;;;;;0.33;91.20;99889.16;5051534;28;20053;-78
2020/12/18 10:05:17;;;;;;;26.00;11.97;;;;;;;0.40;92.63;99892.28;5051093;28;20048;-78
2020/12/18 10:07:43;;;;;;;21.45;11.00;;;;;;;0.53;92.70;99909.25;5053970;28;20053;-78
2020/12/18 10:10:11;;;;;;;20.90;12.00;;;;;;;0.64;92.40;99900.47;5055554;28;20067;-78
2020/12/18 10:12:37;;;;;;;23.95;12.65;;;;;;;0.58;92.80;99890.19;5055884;28;20056;-79
2020/12/18 10:15:03;;;;;;;28.73;15.00;;;;;;;0.70;92.30;99875.13;5055450;28;20060;-78
2020/12/18 10:17:30;;;;;;;22.20;12.90;;;;;;;0.91;92.21;99896.91;5054882;28;20052;-79
2020/12/18 10:19:56;;;;;;;27.73;13.50;;;;;;;0.88;92.80;99900.63;5055108;28;20378;-79
2020/12/18 10:22:22;;;;;;;23.83;13.87;;;;;;;0.76;92.48;99884.56;5055328;28;20045;-79
2020/12/18 10:24:48;;;;;;;23.25;13.32;;;;;;;0.87;91.95;99887.34;5055380;28;20417;-78
2020/12/18 10:27:16;;;;;;;23.25;13.07;;;;;;;0.94;92.38;99896.69;5055498;28;20126;-78
2020/12/18 10:29:42;;;;;;;27.55;12.57;;;;;;;0.91;92.30;99894.22;5035271;28;20056;-79
2020/12/18 10:32:08;;;;;;;24.52;13.05;;;;;;;1.11;92.50;99887.47;5035419;28;20045;-78
2020/12/18 10:34:34;;;;;;;28.48;13.43;;;;;;;1.21;92.69;99882.34;5048965;28;20045;-79
2020/12/18 10:37:00;;;;;;;23.63;14.73;;;;;;;1.45;92.85;99881.59;5054654;28;20045;-79
2020/12/18 10:39:27;;;;;;;31.08;15.57;;;;;;;1.61;92.60;99870.63;5054527;28;20045;-78
2020/12/18 10:41:54;;;;;;;28.10;15.88;;;;;;;1.78;93.04;99870.28;5054935;28;20064;-79
2020/12/18 10:44:21;;;;;;;28.58;16.25;;;;;;;1.88;92.30;99865.94;5053813;28;20049;-79
2020/12/18 10:46:48;;;;;;;35.83;18.00;;;;;;;1.92;93.18;99845.13;5054699;28;20049;-78
2020/12/18 10:49:17;;;;;;;27.95;16.40;;;;;;;2.16;93.07;99863.91;5054539;28;20068;-78
2020/12/18 10:51:44;;;;;;;28.48;14.82;;;;;;;2.17;93.00;99854.91;5054884;28;20053;-78
2020/12/18 10:54:12;;;;;;;35.33;18.23;;;;;;;2.39;93.04;99855.97;5054487;28;20127;-78
2020/12/18 10:56:42;;;;;;;29.05;16.00;;;;;;;2.37;92.35;99850.72;5054973;28;20053;-78
2020/12/18 10:59:09;;;;;;;32.95;16.58;;;;;;;2.59;93.32;99858.00;5054330;28;20099;-78
2020/12/18 11:01:37;;;;;;;33.03;17.13;;;;;;;2.49;92.94;99827.47;5054528;28;20378;-78
2020/12/18 11:04:04;;;;;;;34.47;18.50;;;;;;;2.74;93.25;99842.53;5054624;28;20111;-78
2020/12/18 11:06:30;;;;;;;30.40;16.20;;;;;;;2.74;93.05;99825.56;5053773;28;20497;-78
2020/12/18 11:08:57;;;;;;;33.90;17.52;;;;;;;2.98;93.06;99838.91;5054198;28;20056;-78
2020/12/18 11:11:24;;;;;;;34.15;17.50;;;;;;;3.10;93.32;99832.59;5053773;28;20053;-78
2020/12/18 11:13:51;;;;;;;33.20;14.88;;;;;;;3.25;93.19;99827.84;5054522;28;20045;-78
2020/12/18 11:16:18;;;;;;;28.92;14.75;;;;;;;3.32;92.99;99826.38;5054316;28;20056;-78
2020/12/18 11:18:46;;;;;;;32.05;18.13;;;;;;;3.52;92.83;99824.78;5052584;28;20049;-78
2020/12/18 11:21:12;;;;;;;44.75;23.50;;;;;;;3.61;92.76;99816.94;5054050;28;20139;-78
2020/12/18 11:23:38;;;;;;;36.28;18.48;;;;;;;3.62;92.33;99805.22;5053997;28;20045;-78
2020/12/18 11:26:05;;;;;;;34.92;18.75;;;;;;;3.83;92.81;99813.38;5053910;28;20052;-78
2020/12/18 11:28:31;;;;;;;45.03;21.63;;;;;;;4.04;93.57;99814.28;5053771;28;20126;-78
2020/12/18 11:30:57;;;;;;;44.25;19.95;;;;;;;4.27;93.49;99802.59;5054309;28;20103;-78
2020/12/18 11:33:25;;;;;;;42.00;17.52;;;;;;;4.41;93.50;99800.44;5053635;28;20049;-78